Aeroporto :
LOGIN :

Iscrizione | Disclaimer

   EN    FR    IT 

 










Sommario :    VFR   VFR Marginale   IFR   IFR Intensivo   IFR Molto Intensivo
Visibilità : 
Base nubi : 
>= 8 km
>= 3000ft
5 / 8 km
1000 / 3000 ft
1500m / 5 km
500 / 1000 ft
800 / 1500m
200 / 500 ft
< 800m
< 200 ft
Simboli :   Temporali  Nebbia  Neve Forte  Precipitazioni Forti  Vento > 20 kt
SIGMETs :   Varie  Temporali  Ghiacco  Turbolenza  Onda orograficha  Ceneri Vulcaniche







- Altitudine del aeroporto : 245 ft
- Codice IATA : BIQ
- Carte del aeroporto


LFBZ - Biarritz

ULTIMO METAR :
  • 191030Z AUTO 33008KT 300V360 9999 BKN014/// BKN042/// BKN052/// ///CB 13/12 Q1012 TEMPO 30015G25KT 4000 SHRA BKN005 BKN015TCU

METARs OBSOLETI :
  • 191000Z AUTO 30008KT 7000 -RA FEW015/// SCT028/// BKN033/// ///CB 13/12 Q1012 TEMPO 30015G25KT 3000 RA BKN005 BKN015TCU
  • 190930Z AUTO 31010KT 7000 -RA FEW009/// SCT031/// BKN050/// ///CB 12/11 Q1012 TEMPO 30015G25KT 3000 RA BKN005 BKN015TCU
  • 190900Z AUTO 33013KT 300V360 8000 1400 R09/1700D R27/1700D +RA FEW008/// BKN014/// BKN027/// ///CB 12/11 Q1012 TEMPO 30015G25KT 3000 RA BKN005 BKN015TCU
  • 190830Z AUTO 30015KT 9999 BKN015/// BKN026/// BKN037/// ///CB 13/11 Q1011 TEMPO 30015G25KT 3000 RA BKN005 BKN015TCU
  • 190800Z AUTO 30013KT 270V330 9999 FEW009/// BKN014/// BKN024/// ///CB 13/12 Q1011 TEMPO 30015G25KT 3000 RA BKN005 BKN015TCU

TAF AMD TAF LFBZ
Valido dal 19 a 08 ore il 20 a 06 ore UTC


190802Z 1908/2006 28012KT 9999 BKN015
TEMPO 1908/1912 30015G25KT 3000 RA BKN005 BKN015TCU
PROB40
TEMPO 1908/1909 1400 TSRA BKN005 BKN015CB
TEMPO 1912/1918 30015G25KT 4000 SHRA BKN010 BKN015TCU
Nessun NOTAM noto per questo aeroporto.



MetMap, La meteo Aeronautica in un colpo d'occhio ! - Copyright ORBIFLY Dicembre 2007 - Disclaimer

ORBIFLY MET'MAP TEAM :

Programmazione e sviluppo : Alexandra Zaïnal
Concezione e sviluppo : Baudouin d'Aumeries
Co-Programmazione e sviluppo : Marc-Olivier Méhu
Supporto tecnico e logistico : Manuel Goepfert
Aiuto per la traduzione : Arnaldo La Scala

Contatto : metmap@orbifly.com




FONTI E CREDITI :

   NOAA